createdAt,value
2024-05-09T00:02:15.519Z,6.19
2024-05-09T00:05:02.090Z,6.25
2024-05-09T00:07:48.482Z,6.31
2024-05-09T00:10:37.694Z,6.25
2024-05-09T00:13:25.308Z,6.19
2024-05-09T00:16:11.266Z,6.31
2024-05-09T00:18:57.431Z,6.44
2024-05-09T00:21:43.684Z,6.50
2024-05-09T00:24:29.924Z,6.50
2024-05-09T00:27:16.055Z,6.56
2024-05-09T00:30:03.937Z,6.50
2024-05-09T00:32:50.403Z,6.50
2024-05-09T00:35:37.281Z,6.50
2024-05-09T00:38:23.629Z,6.44
2024-05-09T00:41:09.943Z,6.31
2024-05-09T00:43:56.325Z,6.25
2024-05-09T00:46:43.730Z,6.25
2024-05-09T00:49:32.169Z,6.19
2024-05-09T00:52:18.196Z,6.25
2024-05-09T00:55:05.858Z,6.25
2024-05-09T00:57:52.000Z,6.19
2024-05-09T01:00:40.598Z,6.19
2024-05-09T01:03:27.875Z,6.06
2024-05-09T01:06:14.312Z,6.06
2024-05-09T01:09:00.674Z,6.25
2024-05-09T01:11:47.128Z,6.38
2024-05-09T01:14:36.583Z,6.44
2024-05-09T01:17:23.758Z,6.44
2024-05-09T01:20:12.981Z,6.31
2024-05-09T01:23:06.906Z,6.13
2024-05-09T01:25:53.151Z,6.06
2024-05-09T01:28:39.308Z,6.19
2024-05-09T01:31:25.464Z,6.25
2024-05-09T01:34:11.681Z,6.25
2024-05-09T01:36:58.036Z,6.25
2024-05-09T01:39:44.254Z,6.25
2024-05-09T01:42:30.235Z,6.19
2024-05-09T01:45:17.811Z,6.19
2024-05-09T01:48:05.080Z,6.25
2024-05-09T01:50:51.352Z,6.19
2024-05-09T01:53:38.430Z,6.19
2024-05-09T01:56:24.908Z,6.13
2024-05-09T01:59:11.114Z,6.25
2024-05-09T02:01:58.091Z,6.19
2024-05-09T02:04:48.469Z,6.19
2024-05-09T02:07:35.068Z,6.19
2024-05-09T02:10:26.371Z,6.25
2024-05-09T02:13:18.311Z,6.19
2024-05-09T02:16:10.630Z,6.19
2024-05-09T02:18:57.250Z,6.25
2024-05-09T02:21:43.603Z,6.25
2024-05-09T02:24:29.850Z,6.31
2024-05-09T02:27:16.212Z,6.25
2024-05-09T02:30:02.402Z,6.25
2024-05-09T02:32:50.158Z,6.25
2024-05-09T02:35:39.331Z,6.25
2024-05-09T02:38:25.428Z,6.19
2024-05-09T02:41:11.996Z,6.19
2024-05-09T02:43:58.087Z,6.19
2024-05-09T02:46:44.745Z,6.25
2024-05-09T02:49:31.162Z,6.13
2024-05-09T02:52:18.687Z,6.13
2024-05-09T02:55:05.010Z,6.13
2024-05-09T02:57:50.973Z,6.13
2024-05-09T03:00:40.789Z,6.19
2024-05-09T03:03:29.013Z,6.25
2024-05-09T03:06:15.343Z,6.25
2024-05-09T03:09:04.086Z,6.25
2024-05-09T03:11:51.571Z,6.25
2024-05-09T03:14:37.886Z,6.19
2024-05-09T03:17:24.300Z,6.19
2024-05-09T03:20:17.537Z,6.25
2024-05-09T03:23:10.427Z,6.25
2024-05-09T03:25:57.151Z,6.31
2024-05-09T03:28:43.748Z,6.31
2024-05-09T03:31:30.097Z,6.38
2024-05-09T03:34:16.300Z,6.38
2024-05-09T03:37:02.690Z,6.38
2024-05-09T03:39:48.552Z,6.31
2024-05-09T03:42:40.056Z,6.38
2024-05-09T03:45:26.234Z,6.44
2024-05-09T03:48:12.600Z,6.50
2024-05-09T03:50:59.423Z,6.63
2024-05-09T03:53:45.484Z,6.56
2024-05-09T03:56:31.812Z,6.63
2024-05-09T03:59:18.342Z,6.63
2024-05-09T04:02:05.749Z,6.69
2024-05-09T04:04:51.993Z,6.81
2024-05-09T04:07:38.190Z,6.88
2024-05-09T04:10:32.353Z,6.75
2024-05-09T04:13:19.950Z,6.81
2024-05-09T04:16:09.933Z,6.88
2024-05-09T04:18:56.556Z,7.13
2024-05-09T04:21:43.133Z,7.06
2024-05-09T04:24:29.135Z,7.13
2024-05-09T04:27:14.988Z,7.13
2024-05-09T04:30:01.148Z,7.13
2024-05-09T04:32:47.351Z,7.25
2024-05-09T04:35:33.987Z,7.44
2024-05-09T04:38:20.579Z,7.50
2024-05-09T04:41:07.105Z,7.50
2024-05-09T04:43:53.142Z,7.56
2024-05-09T04:46:39.635Z,7.69
2024-05-09T04:49:26.298Z,7.69
2024-05-09T04:52:12.456Z,7.94
2024-05-09T04:54:59.046Z,8.19
2024-05-09T04:57:45.365Z,8.25
2024-05-09T05:00:36.610Z,8.25
2024-05-09T05:03:25.351Z,8.38
2024-05-09T05:06:11.671Z,8.44
2024-05-09T05:08:57.714Z,8.56
2024-05-09T05:11:44.255Z,8.75
2024-05-09T05:14:30.761Z,8.63
2024-05-09T05:17:17.221Z,9.06
2024-05-09T05:20:04.713Z,9.19
2024-05-09T05:22:50.901Z,9.06
2024-05-09T05:25:37.231Z,9.06
2024-05-09T05:28:23.543Z,9.44
2024-05-09T05:31:09.955Z,9.25
2024-05-09T05:33:56.081Z,9.19
2024-05-09T05:36:42.611Z,9.44
2024-05-09T05:39:28.513Z,9.69
2024-05-09T05:42:14.760Z,10.00
2024-05-09T05:45:01.465Z,10.06
2024-05-09T05:47:47.742Z,10.13
2024-05-09T05:50:37.363Z,10.63
2024-05-09T05:53:25.154Z,11.06
2024-05-09T05:56:11.459Z,10.81
2024-05-09T05:58:57.897Z,11.44
2024-05-09T06:01:44.016Z,11.94
2024-05-09T06:04:30.285Z,12.31
2024-05-09T06:07:16.644Z,12.69
2024-05-09T06:10:05.287Z,14.00
2024-05-09T06:12:53.248Z,15.50
2024-05-09T06:15:40.154Z,19.13
2024-05-09T06:18:26.978Z,19.19
2024-05-09T06:21:16.396Z,15.69
2024-05-09T06:24:05.321Z,15.38
2024-05-09T06:26:52.427Z,14.56
2024-05-09T06:29:40.881Z,14.25
2024-05-09T06:32:27.164Z,14.69
2024-05-09T06:35:13.851Z,16.69
2024-05-09T06:38:00.530Z,18.06
2024-05-09T06:40:46.869Z,18.88
2024-05-09T06:43:34.449Z,18.38
2024-05-09T06:46:21.654Z,17.63
2024-05-09T06:49:10.841Z,19.38
2024-05-09T06:51:58.980Z,19.19
2024-05-09T06:54:45.151Z,18.50
2024-05-09T06:57:31.472Z,19.19
2024-05-09T07:00:26.812Z,17.69
2024-05-09T07:03:18.767Z,18.13
2024-05-09T07:06:06.113Z,18.13
2024-05-09T07:08:52.835Z,17.25
2024-05-09T07:11:39.009Z,18.63
2024-05-09T07:14:25.552Z,18.63
2024-05-09T07:17:12.014Z,18.38
2024-05-09T07:19:59.333Z,19.00
2024-05-09T07:22:45.444Z,17.50
2024-05-09T07:25:31.746Z,18.00
2024-05-09T07:28:20.389Z,17.88
2024-05-09T07:31:06.926Z,17.38
2024-05-09T07:33:53.316Z,17.69
2024-05-09T07:36:39.555Z,17.75
2024-05-09T07:39:25.799Z,17.88
2024-05-09T07:42:11.681Z,17.38
2024-05-09T07:45:11.223Z,17.31
2024-05-09T07:52:38.252Z,18.44
2024-05-09T07:54:01.418Z,16.75
2024-05-09T07:56:48.199Z,16.38
2024-05-09T07:59:37.618Z,15.88
2024-05-09T08:02:24.212Z,17.13
2024-05-09T08:05:10.862Z,16.56
2024-05-09T08:07:57.121Z,17.94
2024-05-09T08:10:43.441Z,20.38
2024-05-09T08:13:29.757Z,22.56
2024-05-09T08:16:15.992Z,22.63
2024-05-09T08:19:02.680Z,21.63
2024-05-09T08:21:49.631Z,20.75
2024-05-09T08:24:35.837Z,21.19
2024-05-09T08:27:22.346Z,21.25
2024-05-09T08:30:15.432Z,20.75
2024-05-09T08:33:08.243Z,20.69
2024-05-09T08:35:54.814Z,20.56
2024-05-09T08:38:40.877Z,22.13
2024-05-09T08:41:27.393Z,19.88
2024-05-09T08:44:13.648Z,19.94
2024-05-09T08:46:59.909Z,22.19
2024-05-09T08:49:48.079Z,25.00
2024-05-09T08:52:34.466Z,24.69
2024-05-09T08:55:21.351Z,24.94
2024-05-09T08:58:14.448Z,24.63
2024-05-09T09:01:03.298Z,24.25
2024-05-09T09:03:52.860Z,26.31
2024-05-09T09:06:39.185Z,25.50
2024-05-09T09:09:26.637Z,25.75
2024-05-09T09:12:13.050Z,24.94
2024-05-09T09:14:59.497Z,24.94
2024-05-09T09:17:58.537Z,24.13
2024-05-09T09:20:44.843Z,24.00
2024-05-09T09:23:32.615Z,25.19
2024-05-09T09:26:18.910Z,24.81
2024-05-09T09:29:05.071Z,25.31
2024-05-09T09:32:07.379Z,25.31
2024-05-09T09:34:53.668Z,25.75
2024-05-09T09:37:40.552Z,26.13
2024-05-09T09:40:34.792Z,25.88
2024-05-09T09:43:25.478Z,25.31
2024-05-09T09:46:13.212Z,24.75
2024-05-09T09:49:00.438Z,23.63
2024-05-09T09:51:47.688Z,25.25
2024-05-09T09:54:35.062Z,25.38
2024-05-09T09:57:23.217Z,24.00
2024-05-09T10:00:17.271Z,24.50
2024-05-09T10:03:07.139Z,25.00
2024-05-09T10:05:54.389Z,26.69
2024-05-09T10:08:42.021Z,25.38
2024-05-09T10:11:31.781Z,26.63
2024-05-09T10:14:21.665Z,26.31
2024-05-09T10:17:08.177Z,25.81
2024-05-09T10:20:11.885Z,26.00
2024-05-09T10:23:04.798Z,25.31
2024-05-09T10:26:00.355Z,25.56
2024-05-09T10:28:46.676Z,26.63
2024-05-09T10:31:33.251Z,26.94
2024-05-09T10:34:23.357Z,26.06
2024-05-09T10:37:10.010Z,27.50
2024-05-09T10:39:58.206Z,26.00
2024-05-09T10:42:45.129Z,26.81
2024-05-09T10:45:31.238Z,26.81
2024-05-09T10:48:17.583Z,26.06
2024-05-09T10:51:04.603Z,25.31
2024-05-09T10:53:51.779Z,26.63
2024-05-09T10:56:38.303Z,25.94
2024-05-09T10:59:24.943Z,25.31
2024-05-09T11:02:11.730Z,25.56
2024-05-09T11:04:58.327Z,26.25
2024-05-09T11:07:44.749Z,27.31
2024-05-09T11:10:34.066Z,27.25
2024-05-09T11:13:38.167Z,26.50
2024-05-09T11:16:24.460Z,27.88
2024-05-09T11:19:13.074Z,26.75
2024-05-09T11:22:02.407Z,26.75
2024-05-09T11:24:48.769Z,26.06
2024-05-09T11:27:35.354Z,26.06
2024-05-09T11:30:29.644Z,26.81
2024-05-09T11:33:19.041Z,26.63
2024-05-09T11:36:06.634Z,27.63
2024-05-09T11:38:52.871Z,27.44
2024-05-09T11:41:39.403Z,24.31
2024-05-09T11:44:26.394Z,22.25
2024-05-09T11:47:12.583Z,24.56
2024-05-09T11:49:58.959Z,24.13
2024-05-09T11:52:45.470Z,23.19
2024-05-09T11:55:35.617Z,22.13
2024-05-09T11:58:22.884Z,21.31
2024-05-09T12:01:09.284Z,21.69
2024-05-09T12:03:55.821Z,20.75
2024-05-09T12:06:42.353Z,20.06
2024-05-09T12:09:28.901Z,19.06
2024-05-09T12:12:14.866Z,19.69
2024-05-09T12:15:01.394Z,19.44
2024-05-09T12:17:50.763Z,19.44
2024-05-09T12:20:39.551Z,19.25
2024-05-09T12:23:27.126Z,19.44
2024-05-09T12:26:15.069Z,19.75
2024-05-09T12:29:01.101Z,19.69
2024-05-09T12:31:47.484Z,19.88
2024-05-09T12:34:33.621Z,20.00
2024-05-09T12:37:19.967Z,19.94
2024-05-09T12:40:15.791Z,19.50
2024-05-09T12:43:06.760Z,19.44
2024-05-09T12:45:53.056Z,19.38
2024-05-09T12:48:39.943Z,18.75
2024-05-09T12:51:26.237Z,19.31
2024-05-09T12:54:12.170Z,18.81
2024-05-09T12:56:58.982Z,18.38
2024-05-09T12:59:45.208Z,17.88
2024-05-09T13:02:31.534Z,17.63
2024-05-09T13:05:17.929Z,18.00
2024-05-09T13:08:04.731Z,18.25
2024-05-09T13:10:51.129Z,18.31
2024-05-09T13:13:37.180Z,17.94
2024-05-09T13:16:23.687Z,18.75
2024-05-09T13:19:10.059Z,18.81
2024-05-09T13:21:56.130Z,18.63
2024-05-09T13:24:42.466Z,18.56
2024-05-09T13:27:28.639Z,18.06
2024-05-09T13:30:21.431Z,17.75
2024-05-09T13:33:13.746Z,18.00
2024-05-09T13:36:00.456Z,17.63
2024-05-09T13:38:46.569Z,17.38
2024-05-09T13:41:32.783Z,17.44
2024-05-09T13:44:19.150Z,18.00
2024-05-09T13:47:05.157Z,18.13
2024-05-09T13:49:51.344Z,18.13
2024-05-09T13:52:37.815Z,17.56
2024-05-09T13:55:24.203Z,17.88
2024-05-09T13:58:10.926Z,18.06
2024-05-09T14:00:57.601Z,17.88
2024-05-09T14:03:44.072Z,18.13
2024-05-09T14:06:30.583Z,18.38
2024-05-09T14:09:17.074Z,18.38
2024-05-09T14:12:03.750Z,18.38
2024-05-09T14:14:49.756Z,18.50
2024-05-09T14:17:36.171Z,18.63
2024-05-09T14:20:30.695Z,18.94
2024-05-09T14:23:18.685Z,18.75
2024-05-09T14:26:04.751Z,18.50
2024-05-09T14:28:50.964Z,19.06
2024-05-09T14:31:39.355Z,19.31
2024-05-09T14:34:27.195Z,18.31
2024-05-09T14:37:13.730Z,18.31
2024-05-09T14:40:00.077Z,18.25
2024-05-09T14:42:46.489Z,18.50
2024-05-09T14:45:33.699Z,18.56
2024-05-09T14:48:20.224Z,18.19
2024-05-09T14:51:06.806Z,17.56
2024-05-09T14:53:53.118Z,17.31
2024-05-09T14:56:39.643Z,17.88
2024-05-09T14:59:26.025Z,17.63
2024-05-09T15:02:12.213Z,17.81
2024-05-09T15:04:58.527Z,18.19
2024-05-09T15:07:45.213Z,18.56
2024-05-09T15:10:35.370Z,18.38
2024-05-09T15:13:24.092Z,18.13
2024-05-09T15:16:10.505Z,17.63
2024-05-09T15:18:57.242Z,18.00
2024-05-09T15:21:43.467Z,18.06
2024-05-09T15:24:30.061Z,17.88
2024-05-09T15:27:17.433Z,17.81
2024-05-09T15:30:08.503Z,18.38
2024-05-09T15:32:56.962Z,18.00
2024-05-09T15:35:45.578Z,17.81
2024-05-09T15:38:32.142Z,17.56
2024-05-09T15:41:18.207Z,17.38
2024-05-09T15:44:04.703Z,17.50
2024-05-09T15:46:52.076Z,17.25
2024-05-09T15:49:38.470Z,16.94
2024-05-09T15:52:24.843Z,16.75
2024-05-09T15:55:11.328Z,17.19
2024-05-09T15:57:57.427Z,17.06
2024-05-09T16:00:45.493Z,16.94
2024-05-09T16:03:33.362Z,16.94
2024-05-09T16:06:20.533Z,16.75
2024-05-09T16:09:07.444Z,17.06
2024-05-09T16:11:54.198Z,17.00
2024-05-09T16:14:40.539Z,16.69
2024-05-09T16:17:27.069Z,16.88
2024-05-09T16:20:18.314Z,16.63
2024-05-09T16:23:12.157Z,16.56
2024-05-09T16:25:58.589Z,16.31
2024-05-09T16:28:44.674Z,16.13
2024-05-09T16:31:30.972Z,16.00
2024-05-09T16:34:17.207Z,15.81
2024-05-09T16:37:05.757Z,15.31
2024-05-09T16:39:52.160Z,15.38
2024-05-09T16:42:38.473Z,15.56
2024-05-09T16:45:24.290Z,15.38
2024-05-09T16:48:10.874Z,15.75
2024-05-09T16:50:57.181Z,15.63
2024-05-09T16:53:43.474Z,15.75
2024-05-09T16:56:30.047Z,15.63
2024-05-09T16:59:17.701Z,15.50
2024-05-09T17:02:04.451Z,15.63
2024-05-09T17:04:50.896Z,15.63
2024-05-09T17:07:37.906Z,15.63
2024-05-09T17:10:31.299Z,15.63
2024-05-09T17:13:20.312Z,15.63
2024-05-09T17:16:09.678Z,15.38
2024-05-09T17:18:56.297Z,15.38
2024-05-09T17:21:42.830Z,15.25
2024-05-09T17:24:29.122Z,15.19
2024-05-09T17:27:15.342Z,15.06
2024-05-09T17:30:03.467Z,14.88
2024-05-09T17:32:51.282Z,14.75
2024-05-09T17:35:37.632Z,14.56
2024-05-09T17:38:23.819Z,14.50
2024-05-09T17:41:09.824Z,14.38
2024-05-09T17:43:55.687Z,14.38
2024-05-09T17:46:42.368Z,14.38
2024-05-09T17:49:28.645Z,14.19
2024-05-09T17:52:14.857Z,14.06
2024-05-09T17:55:01.102Z,13.88
2024-05-09T17:57:48.027Z,13.75
2024-05-09T18:00:39.418Z,13.81
2024-05-09T18:03:27.956Z,13.63
2024-05-09T18:06:15.727Z,13.44
2024-05-09T18:09:02.118Z,13.38
2024-05-09T18:11:48.523Z,13.13
2024-05-09T18:14:35.507Z,13.13
2024-05-09T18:17:25.637Z,12.94
2024-05-09T18:20:19.653Z,12.88
2024-05-09T18:23:17.681Z,12.88
2024-05-09T18:26:05.326Z,12.75
2024-05-09T18:28:51.662Z,12.69
2024-05-09T18:31:37.855Z,12.50
2024-05-09T18:34:24.320Z,12.44
2024-05-09T18:37:11.067Z,12.38
2024-05-09T18:39:57.431Z,12.19
2024-05-09T18:42:43.859Z,12.19
2024-05-09T18:45:30.137Z,12.19
2024-05-09T18:48:16.380Z,12.06
2024-05-09T18:51:04.416Z,11.88
2024-05-09T18:53:51.799Z,11.75
2024-05-09T18:56:40.125Z,11.63
2024-05-09T18:59:26.575Z,11.63
2024-05-09T19:02:13.508Z,11.50
2024-05-09T19:05:00.277Z,11.50
2024-05-09T19:07:47.496Z,11.50
2024-05-09T19:10:35.380Z,11.38
2024-05-09T19:13:24.173Z,11.31
2024-05-09T19:16:10.271Z,11.19
2024-05-09T19:18:56.820Z,11.19
2024-05-09T19:21:43.595Z,11.13
2024-05-09T19:24:30.175Z,11.13
2024-05-09T19:27:16.526Z,11.06
2024-05-09T19:30:04.285Z,11.06
2024-05-09T19:32:54.141Z,11.00
2024-05-09T19:35:42.546Z,10.88
2024-05-09T19:38:29.168Z,10.88
2024-05-09T19:41:15.686Z,10.75
2024-05-09T19:44:01.979Z,10.56
2024-05-09T19:46:48.246Z,10.56
2024-05-09T19:49:34.506Z,10.56
2024-05-09T19:52:20.573Z,10.56
2024-05-09T19:55:06.757Z,10.50
2024-05-09T19:57:53.110Z,10.50
2024-05-09T20:00:41.775Z,10.50
2024-05-09T20:03:31.635Z,10.63
2024-05-09T20:06:18.884Z,10.50
2024-05-09T20:09:05.150Z,10.44
2024-05-09T20:11:51.277Z,10.50
2024-05-09T20:14:37.754Z,10.44
2024-05-09T20:17:24.123Z,10.44
2024-05-09T20:20:20.282Z,10.56
2024-05-09T20:23:14.512Z,10.50
2024-05-09T20:26:00.991Z,10.38
2024-05-09T20:28:47.161Z,10.50
2024-05-09T20:31:33.722Z,10.38
2024-05-09T20:34:20.049Z,10.44
2024-05-09T20:37:06.495Z,10.25
2024-05-09T20:39:52.574Z,10.31
2024-05-09T20:42:38.884Z,10.38
2024-05-09T20:45:25.382Z,10.44
2024-05-09T20:48:12.271Z,10.44
2024-05-09T20:50:58.563Z,10.38
2024-05-09T20:53:44.599Z,10.38
2024-05-09T20:56:31.058Z,10.31
2024-05-09T20:59:17.783Z,10.31
2024-05-09T21:02:04.658Z,10.44
2024-05-09T21:04:51.604Z,10.31
2024-05-09T21:07:37.705Z,10.44
2024-05-09T21:10:26.919Z,10.44
2024-05-09T21:13:13.790Z,10.31
2024-05-09T21:16:00.194Z,10.38
2024-05-09T21:18:46.681Z,10.38
2024-05-09T21:21:41.620Z,10.38
2024-05-09T21:24:27.912Z,10.31
2024-05-09T21:27:14.159Z,10.38
2024-05-09T21:30:00.578Z,10.38
2024-05-09T21:32:46.902Z,10.38
2024-05-09T21:35:33.485Z,10.31
2024-05-09T21:38:19.543Z,10.31
2024-05-09T21:41:07.030Z,10.31
2024-05-09T21:43:53.623Z,10.38
2024-05-09T21:46:39.657Z,10.44
2024-05-09T21:49:26.304Z,10.38
2024-05-09T21:52:12.954Z,10.44
2024-05-09T21:54:58.975Z,10.50
2024-05-09T21:57:45.330Z,10.56
2024-05-09T22:00:36.853Z,10.69
2024-05-09T22:03:25.191Z,10.75
2024-05-09T22:06:12.147Z,10.75
2024-05-09T22:08:58.622Z,10.81
2024-05-09T22:11:45.788Z,10.81
2024-05-09T22:14:32.237Z,10.88
2024-05-09T22:17:18.771Z,10.88
2024-05-09T22:20:11.991Z,10.88
2024-05-09T22:23:05.145Z,10.94
2024-05-09T22:25:51.311Z,10.94
2024-05-09T22:28:37.849Z,10.94
2024-05-09T22:31:24.214Z,11.00
2024-05-09T22:34:11.908Z,11.00
2024-05-09T22:36:58.260Z,11.00
2024-05-09T22:39:44.796Z,11.00
2024-05-09T22:42:30.897Z,11.00
2024-05-09T22:45:17.148Z,11.06
2024-05-09T22:48:04.807Z,11.19
2024-05-09T22:50:51.273Z,11.19
2024-05-09T22:53:37.810Z,11.31
2024-05-09T22:56:28.462Z,11.38
2024-05-09T22:59:14.490Z,11.38
2024-05-09T23:02:01.115Z,11.44
2024-05-09T23:04:47.463Z,11.44
2024-05-09T23:07:33.787Z,11.44
2024-05-09T23:10:27.472Z,11.44
2024-05-09T23:13:18.666Z,11.44
2024-05-09T23:16:05.701Z,11.44
2024-05-09T23:18:51.813Z,11.44
2024-05-09T23:21:40.020Z,11.38
2024-05-09T23:24:26.119Z,11.38
2024-05-09T23:27:12.151Z,11.38
2024-05-09T23:29:58.517Z,11.38
2024-05-09T23:32:44.757Z,11.38
2024-05-09T23:35:31.058Z,11.38
2024-05-09T23:38:18.369Z,11.38
2024-05-09T23:41:06.359Z,11.38
2024-05-09T23:43:52.641Z,11.38
2024-05-09T23:46:38.666Z,11.38
2024-05-09T23:49:24.802Z,11.38
2024-05-09T23:52:11.427Z,11.38
2024-05-09T23:54:58.040Z,11.31
2024-05-09T23:57:44.412Z,11.25
